LST weather

Launceston Airport
Launceston, Tasmania, Australia

Public forecast

Using degrees Celsius for public forecast. Weather courtesy of forecast.io.

Current aviation weather report (METAR) for Launceston Airport

Retrieved 2019/10/19 08:30 UTC (24 minutes ago):

YMLT 190830Z AUTO 30017KT 9999 // NCD 08/02 Q1009 RF000/0004

Aviation forecast (TAF) for Launceston Airport

Retrieved 2019/10/19 06:36 UTC (2 hours ago):

TAF YMLT 190530Z 1906/2006 29018G30KT 9999 -SHRA FEW025 SCT035 FM190800 33014KT 9999 FEW020 SCT040 FM192300 31018G30KT 9999 FEW025 BKN035 INTER 1906/1907 27025G35KT 4000 SHRA SCT015 BKN030